Guilford College, North Carolina
Current Conditions -  °F | °C
As of 10:54 PM on Tuesday 21 Oct 2014 (Local Time) from KGSO Reporting Station
Few Clouds Few Clouds  
Wind Chill: 53°   Ceiling: Unl
Heat Index: 53°   Visibility: 10mi
Dew Point: 39°   Wind: 13mph
Humidity: 59%   Direction: 330°NNW
Pressure: 29.98"   Gusts: NA
Location:  36.1197°N, 79.8944°W
Report Text: KGSO 220254Z 33011KT 10SM FEW090 12/04 A2998 RMK AO2 SLP148 T01170039 51018
Loading
Personal Weather Stations






























Interactive Weather Map
Tropical Storm Tracking
New forecast layout! Learn more

10-Day Weather Forecast

Advertisements
Track Severe Weather on mobile